Terminal Aerodrome Forecast
Issued by NWS Mt. Holly, NJ

Home | Current Version | Previous Version | Text Only | Print | Product List | Glossary On
Versions: 1 2 3 4 5 6 7 8 9 10 11 12 13 14 15
099
FTUS41 KPHI 220520
TAFRDG
TAF
KRDG 220520Z 2206/2306 VRB03KT P6SM BKN070
     FM220800 VRB02KT P6SM VCSH OVC050
     FM221200 32007KT P6SM BKN045
     FM221800 33011G20KT P6SM BKN035
     FM230100 32005KT P6SM SKC=

USA.gov is the U.S. government's official web portal to all federal, state and local government web resources and services.